Time;durP1;ratioP1;P1;durP2;ratioP2;P2;SDS_P1;SDS_P2;PMS_P1;PMS_P2;Temp;Humidity;BMP_temperature;BMP_pressure;BME280_temperature;BME280_humidity;BME280_pressure;Samples;Min_cycle;Max_cycle;Signal;HPM_P1;HPM_P2
2023/04/06 00:01:00;;;;;;;1.67;1.57;;;19.40;40.50;;;;;;5012941;28;20594;-59
2023/04/06 00:03:26;;;;;;;1.60;1.50;;;19.40;40.50;;;;;;5014529;28;20674;-67
2023/04/06 00:05:52;;;;;;;1.73;1.63;;;19.40;40.60;;;;;;5015028;28;20270;-62
2023/04/06 00:08:17;;;;;;;1.60;1.50;;;19.40;40.60;;;;;;5020832;28;21212;-61
2023/04/06 00:10:43;;;;;;;1.27;1.17;;;19.40;40.60;;;;;;5014796;28;20292;-65
2023/04/06 00:13:08;;;;;;;3.20;1.60;;;19.40;40.70;;;;;;5020446;28;20257;-60
2023/04/06 00:15:34;;;;;;;1.53;1.43;;;19.40;40.60;;;;;;5017280;28;20230;-59
2023/04/06 00:18:00;;;;;;;1.67;1.57;;;19.40;40.60;;;;;;5017894;28;21709;-63
2023/04/06 00:20:26;;;;;;;1.50;1.40;;;19.40;40.60;;;;;;5019005;28;20593;-60
2023/04/06 00:22:51;;;;;;;1.90;1.70;;;19.40;40.70;;;;;;5017770;28;20317;-62
2023/04/06 00:25:17;;;;;;;1.60;1.50;;;19.40;40.70;;;;;;5013754;28;20265;-60
2023/04/06 00:27:42;;;;;;;1.93;1.50;;;19.40;40.60;;;;;;5010643;28;20285;-60
2023/04/06 00:30:09;;;;;;;1.67;1.57;;;19.40;40.60;;;;;;5016468;28;20705;-60
2023/04/06 00:32:35;;;;;;;1.80;1.70;;;19.40;40.60;;;;;;5015431;28;20261;-59
2023/04/06 00:35:05;;;;;;;1.97;1.53;;;19.40;40.70;;;;;;5018653;28;20450;-64
2023/04/06 00:37:30;;;;;;;1.60;1.50;;;19.40;40.60;;;;;;5019300;28;20930;-61
2023/04/06 00:39:56;;;;;;;1.70;1.60;;;19.40;40.60;;;;;;5017921;28;20475;-59
2023/04/06 00:42:25;;;;;;;1.60;1.50;;;19.40;40.60;;;;;;5015395;28;20223;-67
2023/04/06 00:44:53;;;;;;;1.70;1.60;;;19.40;40.60;;;;;;5013026;28;20232;-64
2023/04/06 00:47:18;;;;;;;1.70;1.60;;;19.40;40.60;;;;;;5012129;28;21114;-62
2023/04/06 00:49:44;;;;;;;1.60;1.30;;;19.40;40.60;;;;;;5014832;28;20468;-59
2023/04/06 00:52:10;;;;;;;1.63;1.53;;;19.40;40.70;;;;;;4980134;28;1071107;-60
2023/04/06 00:54:35;;;;;;;1.70;1.60;;;19.40;40.70;;;;;;5017859;28;20284;-60
2023/04/06 00:57:01;;;;;;;1.63;1.53;;;19.40;40.70;;;;;;5010054;28;20227;-62
2023/04/06 00:59:28;;;;;;;1.83;1.73;;;19.40;40.70;;;;;;5012993;28;20349;-62
2023/04/06 01:01:54;;;;;;;1.70;1.60;;;19.40;40.70;;;;;;5015055;28;20243;-62
2023/04/06 01:04:22;;;;;;;1.60;1.50;;;19.40;40.60;;;;;;5015951;28;20427;-61
2023/04/06 01:06:48;;;;;;;1.70;1.60;;;19.40;40.60;;;;;;5016726;28;20468;-65
2023/04/06 01:09:14;;;;;;;2.07;1.97;;;19.40;40.70;;;;;;5010723;28;20522;-60
2023/04/06 01:11:39;;;;;;;1.80;1.70;;;19.40;40.70;;;;;;5014773;28;20415;-61
2023/04/06 01:14:05;;;;;;;1.60;1.50;;;19.40;40.70;;;;;;5018164;28;20305;-60
2023/04/06 01:16:31;;;;;;;1.80;1.70;;;19.40;40.70;;;;;;5016180;28;20667;-60
2023/04/06 01:18:57;;;;;;;1.90;1.40;;;19.40;40.70;;;;;;5017555;28;20445;-60
2023/04/06 01:21:22;;;;;;;1.60;1.50;;;19.40;40.70;;;;;;5021752;28;20757;-60
2023/04/06 01:23:48;;;;;;;1.63;1.53;;;19.40;40.70;;;;;;5020765;28;20679;-61
2023/04/06 01:26:14;;;;;;;2.70;1.47;;;19.40;40.70;;;;;;5021230;28;20219;-63
2023/04/06 01:28:40;;;;;;;1.83;1.73;;;19.40;40.70;;;;;;5019702;28;20246;-59
2023/04/06 01:31:07;;;;;;;1.53;1.43;;;19.40;40.70;;;;;;5017613;28;20623;-61
2023/04/06 01:33:33;;;;;;;1.50;1.40;;;19.40;40.70;;;;;;5020655;28;20230;-61
2023/04/06 01:35:59;;;;;;;1.60;1.50;;;19.40;40.70;;;;;;5017814;28;20447;-61
2023/04/06 01:38:26;;;;;;;1.50;1.40;;;19.40;40.70;;;;;;5014279;28;20696;-61
2023/04/06 01:40:52;;;;;;;1.50;1.40;;;19.40;40.80;;;;;;5018957;28;20483;-62
2023/04/06 01:43:17;;;;;;;1.43;1.33;;;19.40;40.80;;;;;;5016913;28;20961;-66
2023/04/06 01:45:43;;;;;;;1.60;1.50;;;19.40;40.80;;;;;;5017649;28;20245;-59
2023/04/06 01:48:08;;;;;;;1.50;1.40;;;19.40;40.80;;;;;;5016420;28;20222;-60
2023/04/06 01:50:34;;;;;;;1.80;1.70;;;19.40;40.80;;;;;;5017319;28;21434;-60
2023/04/06 01:53:00;;;;;;;1.60;1.50;;;19.30;40.80;;;;;;5015444;28;20254;-59
2023/04/06 01:55:25;;;;;;;1.30;1.20;;;19.30;40.80;;;;;;5017346;28;20626;-59
2023/04/06 01:57:51;;;;;;;1.50;1.40;;;19.30;40.90;;;;;;5014024;28;20549;-63
2023/04/06 02:00:17;;;;;;;1.60;1.50;;;19.30;40.80;;;;;;5013183;28;20258;-66
2023/04/06 02:02:42;;;;;;;1.40;1.30;;;19.30;40.90;;;;;;5018521;28;20229;-66
2023/04/06 02:05:08;;;;;;;1.50;1.40;;;19.30;40.90;;;;;;5018291;28;20764;-61
2023/04/06 02:07:34;;;;;;;1.50;1.40;;;19.30;40.90;;;;;;5015540;28;20230;-64
2023/04/06 02:10:00;;;;;;;1.33;1.23;;;19.30;40.90;;;;;;5015061;28;20463;-61
2023/04/06 02:12:25;;;;;;;1.40;1.30;;;19.30;40.90;;;;;;5014275;28;20236;-64
2023/04/06 02:14:51;;;;;;;1.40;1.30;;;19.30;40.90;;;;;;5021096;28;20250;-59
2023/04/06 02:17:17;;;;;;;1.53;1.43;;;19.30;40.90;;;;;;5015976;28;20215;-62
2023/04/06 02:19:42;;;;;;;1.60;1.50;;;19.30;41.00;;;;;;5016489;28;20229;-62
2023/04/06 02:22:09;;;;;;;1.33;1.23;;;19.30;41.00;;;;;;5013927;28;20238;-62
2023/04/06 02:24:35;;;;;;;1.67;1.57;;;19.30;41.00;;;;;;5018937;28;20219;-60
2023/04/06 02:27:01;;;;;;;1.50;1.40;;;19.30;41.00;;;;;;5012889;28;20427;-60
2023/04/06 02:29:26;;;;;;;1.70;1.60;;;19.30;41.00;;;;;;5013440;28;20438;-61
2023/04/06 02:31:52;;;;;;;1.50;1.40;;;19.30;41.10;;;;;;5015778;28;20211;-60
2023/04/06 02:34:17;;;;;;;1.50;1.40;;;19.30;41.10;;;;;;5014256;28;20269;-66
2023/04/06 02:36:47;;;;;;;1.70;1.60;;;19.30;41.00;;;;;;5025065;28;20223;-60
2023/04/06 02:39:13;;;;;;;1.60;1.50;;;19.30;41.00;;;;;;5013109;28;20231;-62
2023/04/06 02:41:39;;;;;;;1.53;1.43;;;19.30;41.00;;;;;;5012136;28;20467;-61
2023/04/06 02:44:07;;;;;;;1.67;1.57;;;19.30;41.00;;;;;;5015855;28;20449;-60
2023/04/06 02:46:33;;;;;;;2.33;1.70;;;19.30;41.00;;;;;;5014269;28;20443;-65
2023/04/06 02:49:00;;;;;;;1.63;1.53;;;19.30;41.00;;;;;;5016388;28;20444;-61
2023/04/06 02:51:26;;;;;;;2.60;1.47;;;19.30;41.00;;;;;;5015149;28;20325;-60
2023/04/06 02:53:51;;;;;;;1.70;1.60;;;19.30;41.00;;;;;;5012418;28;20527;-62
2023/04/06 02:56:17;;;;;;;1.40;1.30;;;19.30;41.00;;;;;;5011287;28;20420;-62
2023/04/06 02:58:43;;;;;;;2.07;1.87;;;19.30;41.00;;;;;;5015474;28;20227;-60
2023/04/06 03:01:08;;;;;;;1.77;1.67;;;19.30;41.10;;;;;;5014404;28;20352;-64
2023/04/06 03:03:34;;;;;;;1.80;1.70;;;19.30;41.10;;;;;;5016393;28;20749;-61
2023/04/06 03:06:00;;;;;;;1.80;1.70;;;19.30;41.00;;;;;;5016806;28;20640;-63
2023/04/06 03:08:25;;;;;;;1.60;1.50;;;19.30;41.10;;;;;;5012369;28;20233;-59
2023/04/06 03:10:51;;;;;;;1.60;1.50;;;19.30;41.10;;;;;;5015507;28;20215;-59
2023/04/06 03:13:16;;;;;;;1.60;1.50;;;19.30;41.10;;;;;;5012433;28;20269;-68
2023/04/06 03:15:42;;;;;;;1.80;1.70;;;19.30;41.10;;;;;;5015833;28;20219;-64
2023/04/06 03:18:07;;;;;;;1.70;1.60;;;19.20;41.00;;;;;;5013900;28;20306;-62
2023/04/06 03:20:33;;;;;;;1.70;1.60;;;19.20;40.90;;;;;;5015617;28;20702;-60
2023/04/06 03:22:59;;;;;;;1.80;1.70;;;19.30;41.10;;;;;;5020547;28;20666;-64
2023/04/06 03:25:25;;;;;;;1.50;1.40;;;19.30;41.10;;;;;;5017856;28;20317;-60
2023/04/06 03:27:50;;;;;;;1.57;1.47;;;19.30;41.10;;;;;;5013083;28;20514;-63
2023/04/06 03:30:17;;;;;;;1.43;1.33;;;19.30;41.10;;;;;;5016079;28;20961;-59
2023/04/06 03:32:43;;;;;;;1.70;1.60;;;19.30;41.10;;;;;;5013347;28;20250;-60
2023/04/06 03:35:09;;;;;;;1.60;1.50;;;19.20;41.00;;;;;;5019773;28;20848;-61
2023/04/06 03:37:35;;;;;;;1.67;1.57;;;19.20;41.00;;;;;;5015123;28;20504;-60
2023/04/06 03:40:01;;;;;;;1.60;1.50;;;19.30;41.10;;;;;;5015740;28;20227;-61
2023/04/06 03:42:26;;;;;;;1.43;1.33;;;19.20;41.00;;;;;;5011455;28;20308;-59
2023/04/06 03:44:52;;;;;;;1.67;1.57;;;19.30;41.10;;;;;;5013868;28;20218;-65
2023/04/06 03:47:18;;;;;;;1.60;1.50;;;19.20;41.00;;;;;;5015180;28;20225;-59
2023/04/06 03:49:43;;;;;;;1.97;1.87;;;19.30;41.10;;;;;;5013463;28;20765;-59
2023/04/06 03:52:09;;;;;;;2.63;1.50;;;19.30;41.10;;;;;;5014031;28;20266;-62
2023/04/06 03:54:35;;;;;;;1.80;1.70;;;19.30;41.10;;;;;;5015650;28;21017;-60
2023/04/06 03:57:00;;;;;;;1.50;1.40;;;19.20;41.00;;;;;;5018031;28;20701;-61
2023/04/06 03:59:26;;;;;;;1.60;1.50;;;19.30;41.10;;;;;;5011046;28;20284;-61
2023/04/06 04:01:52;;;;;;;1.60;1.50;;;19.30;41.10;;;;;;5013396;28;20237;-60
2023/04/06 04:04:17;;;;;;;1.80;1.70;;;19.30;41.10;;;;;;5015845;28;20276;-67
2023/04/06 04:06:43;;;;;;;1.80;1.70;;;19.30;41.10;;;;;;5013817;28;20288;-61
2023/04/06 04:09:09;;;;;;;1.60;1.50;;;19.20;41.00;;;;;;5007734;28;20830;-62
2023/04/06 04:11:34;;;;;;;1.87;1.77;;;19.20;41.00;;;;;;5013586;28;20225;-64
2023/04/06 04:14:00;;;;;;;2.20;2.00;;;19.30;41.10;;;;;;5012168;28;20233;-61
2023/04/06 04:16:25;;;;;;;1.40;1.30;;;19.30;41.10;;;;;;5013486;28;20288;-60
2023/04/06 04:18:51;;;;;;;1.63;1.53;;;19.20;41.00;;;;;;5013952;28;20671;-66
2023/04/06 04:21:17;;;;;;;1.63;1.53;;;19.30;41.10;;;;;;5011953;28;20227;-59
2023/04/06 04:23:42;;;;;;;2.00;1.90;;;19.20;41.00;;;;;;5015884;28;20313;-60
2023/04/06 04:26:08;;;;;;;1.80;1.70;;;19.20;41.00;;;;;;5013283;28;20284;-61
2023/04/06 04:28:34;;;;;;;1.80;1.70;;;19.20;40.90;;;;;;5011967;28;20262;-66
2023/04/06 04:30:59;;;;;;;7.90;2.00;;;19.30;40.90;;;;;;5013132;28;20829;-64
2023/04/06 04:33:25;;;;;;;1.67;1.57;;;19.30;40.90;;;;;;5014548;28;20226;-64
2023/04/06 04:35:50;;;;;;;2.10;2.00;;;19.30;40.80;;;;;;5013434;28;20784;-64
2023/04/06 04:38:16;;;;;;;1.90;1.80;;;19.30;40.80;;;;;;5011303;28;20265;-68
2023/04/06 04:40:42;;;;;;;1.67;1.57;;;19.40;40.80;;;;;;5009774;28;20227;-62
2023/04/06 04:43:07;;;;;;;2.00;1.90;;;19.40;40.80;;;;;;5009830;28;20223;-60
2023/04/06 04:45:33;;;;;;;3.03;2.00;;;19.40;40.80;;;;;;5017066;28;20254;-61
2023/04/06 04:47:59;;;;;;;2.00;1.90;;;19.40;40.70;;;;;;5018940;28;20231;-61
2023/04/06 04:50:25;;;;;;;2.70;2.20;;;19.40;40.80;;;;;;5010848;28;20252;-66
2023/04/06 04:52:50;;;;;;;2.00;1.90;;;19.40;40.80;;;;;;4995210;28;20447;-66
2023/04/06 04:55:17;;;;;;;10.03;2.33;;;19.40;40.70;;;;;;5017894;28;20222;-61
2023/04/06 04:57:42;;;;;;;4.33;2.60;;;19.40;40.70;;;;;;5017160;28;20701;-61
2023/04/06 05:00:09;;;;;;;1.93;1.73;;;19.40;40.60;;;;;;5014032;28;20480;-63
2023/04/06 05:02:35;;;;;;;4.90;1.70;;;19.40;40.60;;;;;;5007569;28;20280;-60
2023/04/06 05:05:00;;;;;;;4.23;1.80;;;19.40;40.50;;;;;;5011750;28;20532;-63
2023/04/06 05:07:26;;;;;;;2.10;2.00;;;19.40;40.50;;;;;;5008491;28;20426;-61
2023/04/06 05:09:52;;;;;;;2.10;1.90;;;19.40;40.50;;;;;;5013140;28;20353;-66
2023/04/06 05:12:18;;;;;;;2.03;1.63;;;19.40;40.40;;;;;;5011329;28;20227;-62
2023/04/06 05:14:44;;;;;;;2.00;1.90;;;19.40;40.50;;;;;;5012653;28;20233;-61
2023/04/06 05:17:10;;;;;;;2.00;1.90;;;19.40;40.40;;;;;;5009418;28;20434;-64
2023/04/06 05:19:36;;;;;;;3.37;1.80;;;19.40;40.40;;;;;;5020564;28;21216;-61
2023/04/06 05:22:01;;;;;;;3.73;1.80;;;19.40;40.40;;;;;;5017300;28;20660;-62
2023/04/06 05:24:27;;;;;;;2.40;1.70;;;19.50;40.50;;;;;;5017382;28;20223;-61
2023/04/06 05:26:52;;;;;;;2.00;1.80;;;19.40;40.40;;;;;;5016309;28;20222;-63
2023/04/06 05:29:19;;;;;;;1.70;1.60;;;19.50;40.50;;;;;;5010209;28;20329;-61
2023/04/06 05:31:45;;;;;;;2.40;2.20;;;19.50;40.50;;;;;;5004917;28;20238;-62
2023/04/06 05:34:12;;;;;;;5.77;2.20;;;19.50;40.40;;;;;;5012591;28;20443;-64
2023/04/06 05:36:38;;;;;;;2.00;1.80;;;19.50;40.50;;;;;;5007270;28;20265;-62
2023/04/06 05:39:03;;;;;;;2.13;2.03;;;19.50;40.40;;;;;;5016767;28;21205;-61
2023/04/06 05:41:29;;;;;;;1.80;1.70;;;19.50;40.40;;;;;;5016396;28;20471;-66
2023/04/06 05:43:55;;;;;;;2.30;1.57;;;19.50;40.40;;;;;;5011000;28;20235;-61
2023/04/06 05:46:21;;;;;;;1.90;1.80;;;19.50;40.50;;;;;;5006555;28;20455;-63
2023/04/06 05:48:46;;;;;;;2.77;1.67;;;19.50;40.40;;;;;;5010704;28;20234;-65
2023/04/06 05:51:12;;;;;;;1.87;1.77;;;19.50;40.50;;;;;;5010215;28;20629;-62
2023/04/06 05:53:38;;;;;;;2.37;1.70;;;19.50;40.50;;;;;;5010873;28;20227;-61
2023/04/06 05:56:04;;;;;;;1.67;1.57;;;19.50;40.50;;;;;;5014244;28;20288;-60
2023/04/06 05:58:29;;;;;;;1.90;1.80;;;19.50;40.40;;;;;;5008986;28;20680;-67
2023/04/06 06:00:59;;;;;;;2.37;2.13;;;19.50;40.40;;;;;;5007724;28;20468;-60
2023/04/06 06:03:25;;;;;;;1.80;1.70;;;19.50;40.40;;;;;;5009560;28;20638;-62
2023/04/06 06:05:51;;;;;;;1.73;1.63;;;19.50;40.30;;;;;;5011539;28;20419;-67
2023/04/06 06:08:16;;;;;;;2.60;1.70;;;19.50;40.30;;;;;;5012142;28;20223;-66
2023/04/06 06:10:42;;;;;;;1.83;1.70;;;19.50;40.30;;;;;;5009409;28;20306;-59
2023/04/06 06:13:09;;;;;;;1.67;1.57;;;19.50;40.30;;;;;;5009658;28;21233;-60
2023/04/06 06:15:35;;;;;;;1.90;1.63;;;19.60;40.40;;;;;;5015177;28;21253;-61
2023/04/06 06:18:00;;;;;;;1.73;1.63;;;19.50;40.30;;;;;;5004541;28;20434;-60
2023/04/06 06:20:26;;;;;;;1.70;1.60;;;19.50;40.30;;;;;;5009414;28;20850;-61
2023/04/06 06:22:52;;;;;;;1.87;1.77;;;19.50;40.30;;;;;;5010119;28;20234;-60
2023/04/06 06:25:18;;;;;;;2.50;1.80;;;19.50;40.30;;;;;;5014124;28;20261;-61
2023/04/06 06:27:43;;;;;;;1.70;1.60;;;19.50;40.30;;;;;;5009909;28;20577;-60
2023/04/06 06:30:09;;;;;;;9.30;2.90;;;19.50;40.30;;;;;;5010180;28;20296;-64
2023/04/06 06:32:35;;;;;;;3.00;2.00;;;19.50;40.20;;;;;;5010439;28;20686;-60
2023/04/06 06:35:01;;;;;;;2.00;1.90;;;19.50;40.30;;;;;;5010248;28;20454;-60
2023/04/06 06:37:26;;;;;;;2.00;1.80;;;19.60;40.30;;;;;;5012494;28;20650;-60
2023/04/06 06:39:52;;;;;;;2.00;1.80;;;19.50;40.30;;;;;;5010012;28;20730;-63
2023/04/06 06:42:18;;;;;;;2.43;2.33;;;19.50;40.30;;;;;;5001366;28;20227;-63
2023/04/06 06:44:43;;;;;;;3.23;1.70;;;19.50;40.20;;;;;;5009542;28;20277;-66
2023/04/06 06:47:09;;;;;;;1.87;1.77;;;19.60;40.30;;;;;;5004088;28;20227;-66
2023/04/06 06:49:35;;;;;;;1.80;1.70;;;19.60;40.40;;;;;;5007860;28;20782;-63
2023/04/06 06:52:00;;;;;;;2.30;1.97;;;19.60;40.40;;;;;;5004294;28;20724;-61
2023/04/06 06:54:26;;;;;;;1.63;1.53;;;19.60;40.30;;;;;;5006805;28;20380;-67
2023/04/06 06:56:51;;;;;;;1.70;1.60;;;19.60;40.30;;;;;;5012378;28;20234;-67
2023/04/06 06:59:17;;;;;;;1.90;1.60;;;19.60;40.30;;;;;;5004370;28;20223;-67
2023/04/06 07:01:43;;;;;;;1.97;1.87;;;19.60;40.30;;;;;;5007483;28;20239;-63
2023/04/06 07:04:08;;;;;;;2.00;1.73;;;19.60;40.50;;;;;;5005134;28;20238;-60
2023/04/06 07:06:37;;;;;;;2.03;1.93;;;19.60;40.30;;;;;;5007041;28;20320;-61
2023/04/06 07:09:05;;;;;;;2.60;2.40;;;19.60;40.20;;;;;;5004736;28;20850;-63
2023/04/06 07:11:31;;;;;;;2.20;2.10;;;19.60;40.30;;;;;;5006687;28;20443;-63
2023/04/06 07:13:56;;;;;;;4.80;1.97;;;19.60;40.20;;;;;;5007029;28;20462;-61
2023/04/06 07:16:22;;;;;;;1.63;1.53;;;19.60;40.30;;;;;;5004071;28;20230;-66
2023/04/06 07:18:47;;;;;;;1.83;1.73;;;19.60;40.20;;;;;;5001668;28;20226;-67
2023/04/06 07:21:13;;;;;;;1.90;1.80;;;19.60;40.30;;;;;;5007692;28;21316;-64
2023/04/06 07:23:39;;;;;;;1.73;1.63;;;19.60;40.30;;;;;;5005261;28;20844;-63
2023/04/06 07:26:05;;;;;;;1.93;1.83;;;19.60;40.30;;;;;;4999132;28;20222;-60
2023/04/06 07:28:31;;;;;;;1.80;1.70;;;19.60;40.30;;;;;;5003685;28;20491;-64
2023/04/06 07:30:56;;;;;;;1.60;1.50;;;19.60;40.30;;;;;;5001205;28;20254;-64
2023/04/06 07:33:22;;;;;;;10.30;2.63;;;19.60;40.30;;;;;;5010521;28;20219;-62
2023/04/06 07:35:48;;;;;;;5.77;2.00;;;19.60;40.30;;;;;;5005538;28;20281;-63
2023/04/06 07:38:13;;;;;;;6.80;2.60;;;19.60;40.30;;;;;;5007512;28;20222;-60
2023/04/06 07:40:39;;;;;;;11.13;2.57;;;19.60;40.40;;;;;;5008156;28;20355;-65
2023/04/06 07:43:04;;;;;;;5.40;2.13;;;19.60;40.30;;;;;;5005547;28;20304;-59
2023/04/06 07:45:30;;;;;;;3.10;2.17;;;19.60;40.30;;;;;;4994457;28;20237;-62
2023/04/06 07:47:56;;;;;;;5.73;2.23;;;19.60;40.30;;;;;;4999289;28;20234;-65
2023/04/06 07:50:21;;;;;;;5.93;2.27;;;19.50;40.20;;;;;;5008617;28;20280;-62
2023/04/06 07:52:47;;;;;;;2.80;2.40;;;19.60;40.20;;;;;;5006969;28;20246;-63
2023/04/06 07:55:13;;;;;;;5.67;2.80;;;19.60;40.20;;;;;;5009669;28;20980;-63
2023/04/06 07:57:38;;;;;;;5.33;2.33;;;19.60;40.10;;;;;;5000406;28;20245;-60
2023/04/06 08:00:05;;;;;;;7.63;2.93;;;19.60;40.00;;;;;;4996710;28;21431;-66
2023/04/06 08:02:31;;;;;;;7.43;2.17;;;19.60;40.00;;;;;;4997125;28;20313;-63
2023/04/06 08:04:57;;;;;;;15.83;2.40;;;19.60;40.00;;;;;;5001797;28;20498;-68
2023/04/06 08:07:23;;;;;;;12.00;2.83;;;19.60;39.90;;;;;;5004757;28;22276;-64
2023/04/06 08:09:48;;;;;;;4.23;2.73;;;19.60;39.90;;;;;;5004996;28;20223;-64
2023/04/06 08:12:14;;;;;;;7.70;2.20;;;19.60;39.90;;;;;;5007601;28;20451;-62
2023/04/06 08:14:40;;;;;;;6.67;2.77;;;19.60;39.90;;;;;;4994890;28;20325;-65
2023/04/06 08:17:05;;;;;;;5.40;2.30;;;19.60;39.90;;;;;;4999194;28;20231;-64
2023/04/06 08:19:31;;;;;;;3.90;1.93;;;19.60;39.90;;;;;;5009361;28;20226;-63
2023/04/06 08:21:57;;;;;;;6.30;2.67;;;19.60;39.90;;;;;;4999925;28;20620;-63
2023/04/06 08:24:23;;;;;;;6.07;2.23;;;19.50;39.80;;;;;;5008412;28;21343;-61
2023/04/06 08:26:48;;;;;;;3.87;2.40;;;19.50;39.80;;;;;;5004476;28;20229;-62
2023/04/06 08:29:14;;;;;;;2.70;2.50;;;19.50;39.80;;;;;;5006338;28;20653;-64
2023/04/06 08:31:40;;;;;;;2.70;2.50;;;19.50;39.80;;;;;;5007133;28;20321;-66
2023/04/06 08:34:05;;;;;;;2.70;2.23;;;19.50;39.80;;;;;;5010792;28;20226;-65
2023/04/06 08:36:31;;;;;;;2.30;2.10;;;19.50;39.80;;;;;;5012886;28;20226;-64
2023/04/06 08:38:57;;;;;;;3.00;2.17;;;19.50;39.80;;;;;;5009957;28;20233;-68
2023/04/06 08:41:22;;;;;;;2.73;2.27;;;19.40;39.70;;;;;;4999636;28;20235;-65
2023/04/06 08:43:51;;;;;;;2.10;1.90;;;19.40;39.60;;;;;;5008187;28;20873;-60
2023/04/06 08:46:17;;;;;;;2.57;1.87;;;19.40;39.60;;;;;;5008472;28;20603;-67
2023/04/06 08:48:45;;;;;;;2.83;2.63;;;19.40;39.60;;;;;;5011987;28;20444;-60
2023/04/06 08:51:11;;;;;;;2.57;2.20;;;19.40;39.60;;;;;;5010121;28;20582;-62
2023/04/06 08:53:37;;;;;;;2.37;1.77;;;19.40;39.60;;;;;;5007605;28;20560;-61
2023/04/06 08:56:05;;;;;;;3.00;1.97;;;19.40;39.60;;;;;;5003752;28;20230;-60
2023/04/06 08:58:40;;;;;;;2.27;2.17;;;19.40;39.50;;;;;;5006207;28;20449;-63
2023/04/06 09:01:11;;;;;;;1.90;1.80;;;19.40;39.60;;;;;;5007388;28;20479;-63
2023/04/06 09:03:41;;;;;;;2.97;2.67;;;19.40;39.60;;;;;;5003561;28;20472;-62
2023/04/06 09:06:08;;;;;;;2.10;2.00;;;19.30;39.50;;;;;;5010171;28;20434;-63
2023/04/06 09:08:34;;;;;;;1.87;1.77;;;19.30;39.50;;;;;;5010960;28;20448;-64
2023/04/06 09:11:02;;;;;;;4.17;2.00;;;19.30;39.50;;;;;;5006610;28;20525;-65
2023/04/06 09:13:27;;;;;;;2.60;2.00;;;19.30;39.50;;;;;;5007520;28;20825;-66
2023/04/06 09:16:00;;;;;;;1.90;1.77;;;19.30;39.40;;;;;;5008267;28;20445;-61
2023/04/06 09:18:32;;;;;;;2.10;1.90;;;19.30;39.50;;;;;;5008116;28;20335;-63
2023/04/06 09:21:03;;;;;;;1.83;1.73;;;19.30;39.50;;;;;;5010027;28;20865;-64
2023/04/06 09:23:29;;;;;;;2.07;1.87;;;19.30;39.60;;;;;;5005703;28;20460;-63
2023/04/06 09:26:15;;;;;;;1.90;1.80;;;19.30;39.60;;;;;;4998982;28;20532;-63
2023/04/06 09:28:51;;;;;;;3.40;2.27;;;19.30;39.60;;;;;;5007012;28;20513;-66
2023/04/06 09:31:32;;;;;;;2.30;2.20;;;19.30;39.60;;;;;;5002284;28;20438;-64
2023/04/06 09:33:59;;;;;;;2.30;2.10;;;19.20;39.40;;;;;;5004740;28;20430;-64
2023/04/06 09:36:33;;;;;;;1.93;1.80;;;19.30;39.60;;;;;;5003925;28;20770;-66
2023/04/06 09:39:00;;;;;;;2.00;1.90;;;19.30;39.50;;;;;;5001294;28;20435;-62
2023/04/06 09:41:36;;;;;;;2.50;1.60;;;19.30;39.60;;;;;;5009293;28;20506;-68
2023/04/06 09:44:11;;;;;;;1.83;1.70;;;19.30;39.70;;;;;;5003711;28;20524;-61
2023/04/06 09:46:39;;;;;;;1.80;1.70;;;19.30;39.60;;;;;;5012205;28;20446;-63
2023/04/06 09:49:05;;;;;;;1.60;1.50;;;19.20;39.50;;;;;;5013575;28;20434;-66
2023/04/06 09:51:38;;;;;;;4.00;1.97;;;19.20;39.50;;;;;;5008109;28;20491;-62
2023/04/06 09:54:05;;;;;;;2.57;2.33;;;19.20;39.50;;;;;;5012306;28;20423;-60
2023/04/06 09:56:45;;;;;;;1.90;1.80;;;19.20;39.50;;;;;;5009228;28;20443;-60
2023/04/06 09:59:17;;;;;;;4.40;2.10;;;19.20;39.50;;;;;;5007667;28;20801;-64
2023/04/06 10:01:44;;;;;;;3.50;2.00;;;19.20;39.50;;;;;;5000517;28;20507;-67
2023/04/06 10:04:29;;;;;;;1.77;1.67;;;19.20;39.50;;;;;;5001257;28;20957;-66
2023/04/06 10:06:56;;;;;;;2.40;2.10;;;19.20;39.60;;;;;;5008626;28;20435;-61
2023/04/06 10:09:27;;;;;;;2.20;2.00;;;19.20;39.60;;;;;;5003469;28;20489;-62
2023/04/06 10:11:54;;;;;;;2.40;2.20;;;19.20;39.50;;;;;;5011803;28;20548;-64
2023/04/06 10:14:20;;;;;;;2.03;1.93;;;19.20;39.50;;;;;;5010485;28;20904;-61
2023/04/06 10:16:48;;;;;;;1.90;1.80;;;19.20;39.60;;;;;;5006947;28;20534;-66
2023/04/06 10:19:21;;;;;;;1.63;1.53;;;19.20;39.50;;;;;;5010604;28;20360;-66
2023/04/06 10:21:49;;;;;;;1.90;1.80;;;19.20;39.50;;;;;;4997118;28;20442;-62
2023/04/06 10:24:17;;;;;;;3.33;2.50;;;19.20;39.60;;;;;;5002859;28;20512;-68
2023/04/06 10:26:42;;;;;;;2.07;1.97;;;19.20;39.50;;;;;;4997984;28;21783;-67
2023/04/06 10:29:27;;;;;;;1.93;1.83;;;19.20;39.50;;;;;;5007493;28;20533;-66
2023/04/06 10:31:53;;;;;;;2.00;1.90;;;19.20;39.60;;;;;;5001322;28;20234;-66
2023/04/06 10:34:18;;;;;;;2.00;1.90;;;19.20;39.60;;;;;;4987860;28;20456;-61
2023/04/06 10:36:45;;;;;;;1.90;1.80;;;19.20;39.60;;;;;;4989993;28;20249;-62
2023/04/06 10:39:10;;;;;;;3.83;2.30;;;19.20;39.70;;;;;;4995234;28;20227;-66
2023/04/06 10:41:45;;;;;;;1.90;1.80;;;19.20;39.70;;;;;;4995892;28;20497;-66
2023/04/06 10:44:21;;;;;;;2.67;2.47;;;19.20;39.70;;;;;;5005017;28;20307;-61
2023/04/06 10:47:00;;;;;;;3.13;2.27;;;19.10;39.60;;;;;;5002964;28;20555;-63
2023/04/06 10:49:26;;;;;;;2.00;1.90;;;19.20;39.70;;;;;;5002927;28;20480;-67
2023/04/06 10:51:55;;;;;;;6.47;3.17;;;19.20;39.70;;;;;;5005007;28;20533;-67
2023/04/06 10:54:23;;;;;;;2.00;1.80;;;19.20;39.80;;;;;;5007095;28;20476;-61
2023/04/06 10:56:49;;;;;;;2.90;1.80;;;19.10;39.60;;;;;;5003696;28;20918;-67
2023/04/06 10:59:20;;;;;;;1.90;1.77;;;19.10;40.40;;;;;;5007062;28;20424;-61
2023/04/06 11:01:46;;;;;;;1.90;1.80;;;19.10;39.60;;;;;;4996855;28;20281;-65
2023/04/06 11:04:16;;;;;;;3.00;2.33;;;19.10;39.60;;;;;;5009095;28;20441;-62
2023/04/06 11:06:47;;;;;;;2.17;1.97;;;19.10;39.70;;;;;;5011510;28;20692;-61
2023/04/06 11:09:23;;;;;;;2.10;1.90;;;19.10;39.70;;;;;;5001411;28;20466;-66
2023/04/06 11:11:49;;;;;;;2.20;2.07;;;19.10;39.60;;;;;;5004743;28;20446;-62
2023/04/06 11:14:14;;;;;;;3.03;1.93;;;19.10;39.70;;;;;;5008667;28;20417;-62
2023/04/06 11:16:40;;;;;;;1.80;1.70;;;19.10;39.60;;;;;;5007619;28;20241;-64
2023/04/06 11:19:06;;;;;;;2.10;1.93;;;19.10;39.70;;;;;;5007312;28;20227;-62
2023/04/06 11:21:47;;;;;;;2.30;2.03;;;19.10;39.70;;;;;;5006072;28;20671;-62
2023/04/06 11:24:21;;;;;;;1.97;1.77;;;19.10;39.70;;;;;;5007608;28;20827;-62
2023/04/06 11:26:55;;;;;;;2.07;1.97;;;19.10;39.80;;;;;;5008380;28;20496;-65
2023/04/06 11:29:26;;;;;;;2.23;1.93;;;19.10;39.80;;;;;;5007811;28;21238;-66
2023/04/06 11:32:00;;;;;;;1.80;1.70;;;19.10;39.80;;;;;;5004134;28;20426;-68
2023/04/06 11:34:27;;;;;;;1.90;1.70;;;19.10;39.80;;;;;;5004025;28;20464;-62
2023/04/06 11:36:58;;;;;;;2.70;1.90;;;19.10;39.80;;;;;;4994004;28;20434;-64
2023/04/06 11:39:26;;;;;;;2.20;2.10;;;19.10;39.80;;;;;;4996227;28;20469;-68
2023/04/06 11:41:53;;;;;;;2.10;2.00;;;19.10;39.80;;;;;;4992985;28;20482;-63
2023/04/06 11:44:49;;;;;;;3.20;2.00;;;19.10;39.80;;;;;;5000361;28;20614;-62
2023/04/06 11:47:14;;;;;;;1.90;1.80;;;19.10;39.80;;;;;;4994909;28;20648;-66
2023/04/06 11:49:44;;;;;;;2.93;2.27;;;19.10;39.80;;;;;;4997299;28;20438;-61
2023/04/06 11:52:24;;;;;;;3.50;1.90;;;19.10;39.80;;;;;;4996872;28;20234;-62
2023/04/06 11:54:51;;;;;;;1.90;1.80;;;19.10;39.80;;;;;;5005094;28;20557;-68
2023/04/06 11:57:18;;;;;;;2.63;2.43;;;19.20;39.80;;;;;;4996885;28;20521;-62
2023/04/06 11:59:44;;;;;;;2.83;2.30;;;19.10;39.70;;;;;;5000117;28;20454;-64
2023/04/06 12:02:10;;;;;;;6.13;1.90;;;19.10;39.80;;;;;;4999828;28;21722;-67
2023/04/06 12:04:36;;;;;;;2.20;2.00;;;19.10;39.80;;;;;;5013778;28;20467;-67
2023/04/06 12:07:03;;;;;;;2.17;1.90;;;19.10;39.90;;;;;;4999520;28;20225;-64
2023/04/06 12:09:29;;;;;;;1.80;1.70;;;19.10;39.90;;;;;;5004808;28;20581;-61
2023/04/06 12:11:55;;;;;;;1.80;1.70;;;19.10;39.90;;;;;;5005190;28;20567;-66
2023/04/06 12:14:21;;;;;;;1.63;1.53;;;19.10;39.90;;;;;;5004632;28;20493;-66
2023/04/06 12:16:47;;;;;;;4.30;1.97;;;19.10;39.90;;;;;;5003723;28;21033;-67
2023/04/06 12:19:13;;;;;;;2.23;2.03;;;19.10;39.90;;;;;;5007480;28;20219;-60
2023/04/06 12:21:38;;;;;;;1.87;1.70;;;19.10;40.00;;;;;;5007268;28;20699;-62
2023/04/06 12:24:05;;;;;;;1.80;1.70;;;19.10;40.00;;;;;;5001601;28;20218;-65
2023/04/06 12:26:31;;;;;;;2.20;1.70;;;19.10;40.00;;;;;;4999277;28;20280;-65
2023/04/06 12:28:56;;;;;;;3.57;1.70;;;19.10;40.00;;;;;;5003418;28;20452;-64
2023/04/06 12:31:23;;;;;;;2.00;1.80;;;19.10;40.00;;;;;;5008185;28;20226;-64
2023/04/06 12:33:50;;;;;;;2.13;1.90;;;19.10;40.10;;;;;;5009916;28;20252;-63
2023/04/06 12:36:20;;;;;;;5.90;1.90;;;19.10;40.10;;;;;;5014506;28;20430;-65
2023/04/06 12:38:53;;;;;;;1.57;1.47;;;19.10;40.10;;;;;;5019348;28;20457;-67
2023/04/06 12:41:19;;;;;;;3.07;2.07;;;19.10;40.10;;;;;;5011443;28;20470;-64
2023/04/06 12:43:45;;;;;;;1.90;1.70;;;19.10;40.10;;;;;;5015074;28;20643;-65